Time;durP1;ratioP1;P1;durP2;ratioP2;P2;SDS_P1;SDS_P2;PMS_P1;PMS_P2;Temp;Humidity;BMP_temperature;BMP_pressure;BME280_temperature;BME280_humidity;BME280_pressure;Samples;Min_cycle;Max_cycle;Signal;HPM_P1;HPM_P2
2022/11/16 00:01:12;;;;;;;41.03;26.30;;;7.80;99.90;;;;;;5033999;28;20230;-67
2022/11/16 00:03:38;;;;;;;41.43;27.40;;;7.70;99.90;;;;;;5037528;28;20492;-65
2022/11/16 00:06:05;;;;;;;42.17;26.77;;;7.70;99.90;;;;;;5038678;28;20209;-71
2022/11/16 00:08:33;;;;;;;43.33;27.63;;;7.70;99.90;;;;;;5036554;28;20261;-67
2022/11/16 00:11:16;;;;;;;40.87;27.40;;;7.60;99.90;;;;;;5037977;28;20214;-67
2022/11/16 00:13:42;;;;;;;44.43;28.80;;;7.70;99.90;;;;;;5038346;28;20274;-72
2022/11/16 00:16:14;;;;;;;41.47;27.17;;;7.70;99.90;;;;;;5038690;28;20349;-68
2022/11/16 00:18:40;;;;;;;39.63;28.13;;;7.70;99.90;;;;;;5038109;28;20551;-69
2022/11/16 00:21:06;;;;;;;40.23;28.37;;;7.70;99.90;;;;;;5027115;28;20198;-74
2022/11/16 00:23:34;;;;;;;44.50;27.43;;;7.80;99.90;;;;;;5030157;28;20213;-67
2022/11/16 00:26:04;;;;;;;37.50;26.27;;;7.80;99.90;;;;;;5037287;28;20290;-70
2022/11/16 00:28:30;;;;;;;37.53;23.97;;;7.80;99.90;;;;;;5037898;28;20219;-69
2022/11/16 00:31:04;;;;;;;38.67;24.73;;;7.80;99.90;;;;;;5033166;28;20210;-69
2022/11/16 00:33:29;;;;;;;35.87;25.10;;;7.90;99.90;;;;;;5032453;28;20545;-67
2022/11/16 00:35:55;;;;;;;35.57;24.40;;;7.80;99.90;;;;;;5037637;28;20646;-66
2022/11/16 00:38:21;;;;;;;34.67;25.13;;;7.80;99.90;;;;;;5037968;28;20214;-69
2022/11/16 00:40:47;;;;;;;35.73;24.27;;;7.70;99.90;;;;;;5037817;28;20237;-71
2022/11/16 00:43:13;;;;;;;35.50;23.63;;;7.70;99.90;;;;;;5037651;28;20202;-69
2022/11/16 00:45:39;;;;;;;33.83;22.87;;;7.70;99.90;;;;;;5035880;28;20207;-69
2022/11/16 00:48:05;;;;;;;35.47;22.87;;;7.70;99.90;;;;;;5038214;28;20212;-69
2022/11/16 00:50:31;;;;;;;33.60;23.17;;;7.60;99.90;;;;;;5037330;28;20688;-68
2022/11/16 00:52:56;;;;;;;33.00;23.47;;;7.60;99.90;;;;;;5037245;28;20285;-67
2022/11/16 00:55:22;;;;;;;30.87;22.57;;;7.50;99.90;;;;;;5037962;28;20199;-70
2022/11/16 00:57:47;;;;;;;30.87;22.97;;;7.40;99.90;;;;;;5035772;28;20222;-69
2022/11/16 01:00:13;;;;;;;37.00;24.60;;;7.40;99.90;;;;;;5037088;28;20551;-68
2022/11/16 01:02:40;;;;;;;39.13;24.27;;;7.30;99.90;;;;;;5032656;28;20568;-67
2022/11/16 01:05:07;;;;;;;35.23;22.90;;;7.30;99.90;;;;;;5037494;28;20335;-68
2022/11/16 01:07:34;;;;;;;33.17;23.13;;;7.40;99.90;;;;;;5027285;28;20654;-68
2022/11/16 01:10:01;;;;;;;31.27;22.60;;;7.40;99.90;;;;;;5026482;28;20261;-68
2022/11/16 01:12:26;;;;;;;34.30;23.30;;;7.40;99.90;;;;;;5027092;28;20222;-67
2022/11/16 01:14:52;;;;;;;30.60;20.90;;;7.40;99.90;;;;;;5027092;28;20696;-69
2022/11/16 01:17:17;;;;;;;35.47;22.10;;;7.30;99.90;;;;;;5026598;28;20674;-68
2022/11/16 01:19:42;;;;;;;33.50;23.23;;;7.30;99.90;;;;;;5029264;28;20214;-68
2022/11/16 01:22:08;;;;;;;35.73;24.87;;;7.30;99.90;;;;;;5021241;28;20674;-68
2022/11/16 01:24:34;;;;;;;35.67;23.57;;;7.40;99.90;;;;;;5027528;28;20586;-68
2022/11/16 01:26:59;;;;;;;31.27;21.00;;;7.40;99.90;;;;;;5027327;28;20211;-68
2022/11/16 01:29:26;;;;;;;33.33;23.30;;;7.40;99.90;;;;;;5027365;28;20222;-69
2022/11/16 01:31:52;;;;;;;34.07;23.17;;;7.40;99.90;;;;;;5028132;28;20195;-69
2022/11/16 01:34:17;;;;;;;30.30;21.50;;;7.40;99.90;;;;;;5026480;28;20612;-69
2022/11/16 01:36:43;;;;;;;32.73;23.57;;;7.40;99.90;;;;;;5024949;28;20205;-68
2022/11/16 01:39:11;;;;;;;32.57;22.17;;;7.50;99.90;;;;;;5036890;28;20209;-68
2022/11/16 01:41:37;;;;;;;32.37;23.57;;;7.50;99.90;;;;;;5032186;28;20194;-69
2022/11/16 01:44:24;;;;;;;31.40;22.97;;;7.50;99.90;;;;;;5037015;28;20289;-68
2022/11/16 01:46:50;;;;;;;31.07;22.50;;;7.40;99.90;;;;;;5036806;28;20653;-67
2022/11/16 01:49:20;;;;;;;29.00;21.40;;;7.40;99.90;;;;;;5036380;28;20309;-67
2022/11/16 01:51:50;;;;;;;29.50;22.37;;;7.40;99.90;;;;;;5035134;28;20230;-70
2022/11/16 01:54:16;;;;;;;30.63;21.70;;;7.40;99.90;;;;;;5027673;28;20212;-69
2022/11/16 01:56:46;;;;;;;31.80;22.17;;;7.40;99.90;;;;;;5036845;28;20340;-69
2022/11/16 01:59:12;;;;;;;32.90;23.30;;;7.50;99.90;;;;;;5036768;28;20198;-68
2022/11/16 02:01:38;;;;;;;31.93;23.30;;;7.50;99.90;;;;;;5034274;28;20248;-67
2022/11/16 02:04:04;;;;;;;33.40;23.77;;;7.40;99.90;;;;;;5036579;28;20202;-68
2022/11/16 02:06:35;;;;;;;32.87;22.87;;;7.40;99.90;;;;;;5036439;28;20218;-68
2022/11/16 02:12:21;;;;;;;29.67;21.17;;;7.40;99.90;;;;;;5036472;28;20217;-69
2022/11/16 02:15:14;;;;;;;34.10;22.73;;;7.40;99.90;;;;;;5033650;28;20238;-68
2022/11/16 02:17:50;;;;;;;29.23;21.93;;;7.30;99.90;;;;;;5026194;28;20453;-68
2022/11/16 02:20:56;;;;;;;32.33;22.60;;;7.20;99.90;;;;;;5028444;28;20206;-69
2022/11/16 02:24:04;;;;;;;31.93;20.40;;;7.10;99.90;;;;;;5026208;28;20205;-70
2022/11/16 02:27:00;;;;;;;34.97;22.03;;;7.00;99.90;;;;;;5026420;28;20289;-69
2022/11/16 02:29:29;;;;;;;33.90;22.13;;;7.00;99.90;;;;;;5025747;28;20211;-68
2022/11/16 02:32:03;;;;;;;36.37;23.53;;;7.00;99.90;;;;;;5026042;28;20187;-69
2022/11/16 02:34:37;;;;;;;29.37;21.33;;;7.00;99.90;;;;;;5030602;28;20684;-68
2022/11/16 02:37:05;;;;;;;35.30;24.03;;;7.10;99.90;;;;;;5030706;28;20954;-69
2022/11/16 02:39:33;;;;;;;35.77;23.27;;;7.00;99.90;;;;;;5029767;28;20199;-66
2022/11/16 02:42:01;;;;;;;32.47;22.90;;;7.00;99.90;;;;;;5029738;28;20211;-66
2022/11/16 02:44:37;;;;;;;30.73;21.60;;;7.00;99.90;;;;;;5029399;28;20249;-66
2022/11/16 02:47:11;;;;;;;36.83;24.50;;;7.00;99.90;;;;;;5028069;28;20234;-66
2022/11/16 02:49:43;;;;;;;36.63;21.97;;;7.00;99.90;;;;;;5030342;28;20230;-68
2022/11/16 02:52:11;;;;;;;35.73;23.07;;;6.90;99.90;;;;;;5030615;28;20206;-67
2022/11/16 02:54:37;;;;;;;35.27;22.50;;;6.90;99.90;;;;;;5029432;28;20679;-69
2022/11/16 02:57:02;;;;;;;34.83;23.43;;;6.80;99.90;;;;;;5030359;28;20254;-67
2022/11/16 02:59:50;;;;;;;34.27;22.50;;;6.80;99.90;;;;;;5028559;28;20210;-65
2022/11/16 03:02:26;;;;;;;32.47;22.33;;;6.80;99.90;;;;;;5030881;28;20693;-66
2022/11/16 03:05:06;;;;;;;36.37;22.03;;;6.80;99.90;;;;;;5030654;28;20612;-66
2022/11/16 03:07:40;;;;;;;35.43;23.17;;;6.70;99.90;;;;;;5030329;28;20211;-72
2022/11/16 03:10:06;;;;;;;33.43;21.40;;;6.70;99.90;;;;;;5030943;28;20693;-69
2022/11/16 03:12:34;;;;;;;35.87;23.13;;;6.70;99.90;;;;;;5025694;28;20210;-69
2022/11/16 03:15:10;;;;;;;36.47;23.87;;;6.70;99.90;;;;;;5029936;28;20205;-69
2022/11/16 03:17:45;;;;;;;36.47;23.73;;;6.70;99.90;;;;;;5030069;28;20238;-68
2022/11/16 03:20:21;;;;;;;38.93;24.57;;;6.80;99.90;;;;;;5029889;28;20218;-68
2022/11/16 03:22:50;;;;;;;42.30;27.53;;;6.80;99.90;;;;;;5030642;28;20682;-68
2022/11/16 03:25:18;;;;;;;38.57;24.40;;;6.70;99.90;;;;;;5028882;28;20697;-68
2022/11/16 03:28:05;;;;;;;37.80;25.73;;;6.70;99.90;;;;;;5030101;28;20595;-68
2022/11/16 03:30:36;;;;;;;39.50;25.67;;;6.70;99.90;;;;;;5028386;28;20195;-67
2022/11/16 03:33:09;;;;;;;32.67;24.10;;;6.70;99.90;;;;;;5026456;28;20207;-68
2022/11/16 03:35:44;;;;;;;39.63;26.37;;;6.70;99.90;;;;;;5028426;28;20203;-68
2022/11/16 03:38:11;;;;;;;41.33;27.33;;;6.80;99.90;;;;;;5028620;28;20283;-68
2022/11/16 03:40:38;;;;;;;36.57;24.50;;;6.70;99.90;;;;;;5029171;28;20268;-68
2022/11/16 03:43:05;;;;;;;40.97;25.40;;;6.70;99.90;;;;;;5028132;28;20580;-68
2022/11/16 03:45:31;;;;;;;38.80;27.60;;;6.70;99.90;;;;;;5028408;28;20241;-68
2022/11/16 03:47:57;;;;;;;36.73;24.53;;;6.70;99.90;;;;;;5026494;28;20261;-68
2022/11/16 03:50:22;;;;;;;43.30;27.03;;;6.80;99.90;;;;;;5029293;28;20692;-70
2022/11/16 03:52:48;;;;;;;41.13;26.17;;;6.80;99.90;;;;;;5028663;28;20260;-68
2022/11/16 03:55:13;;;;;;;35.90;25.77;;;6.80;99.90;;;;;;5028399;28;20545;-68
2022/11/16 03:57:39;;;;;;;41.40;25.80;;;6.80;99.90;;;;;;5028044;28;20741;-68
2022/11/16 04:00:06;;;;;;;39.77;25.70;;;6.80;99.90;;;;;;5028331;28;20370;-68
2022/11/16 04:02:31;;;;;;;37.20;25.87;;;6.80;99.90;;;;;;5026966;28;20294;-68
2022/11/16 04:24:17;;;;;;;45.13;30.67;;;6.80;99.90;;;;;;5027580;28;20469;-65
2022/11/16 04:29:32;;;;;;;43.53;28.70;;;6.80;99.90;;;;;;5025380;28;20277;-67
2022/11/16 04:40:10;;;;;;;44.53;30.87;;;6.80;99.90;;;;;;5027290;28;20205;-68
2022/11/16 04:42:36;;;;;;;47.60;28.63;;;6.80;99.90;;;;;;5026245;28;20206;-64
2022/11/16 04:47:50;;;;;;;43.47;29.03;;;6.80;99.90;;;;;;5024653;28;20574;-67
2022/11/16 04:50:17;;;;;;;45.87;28.80;;;6.80;99.90;;;;;;5026613;28;20269;-67
2022/11/16 04:52:43;;;;;;;48.40;27.90;;;6.80;99.90;;;;;;5027702;28;20199;-68
2022/11/16 04:55:09;;;;;;;50.60;29.17;;;6.80;99.90;;;;;;5027339;28;20214;-68
2022/11/16 04:57:35;;;;;;;45.47;30.23;;;6.80;99.90;;;;;;5026490;28;20237;-71
2022/11/16 05:00:01;;;;;;;47.90;27.83;;;6.80;99.90;;;;;;5022894;28;20272;-68
2022/11/16 05:02:26;;;;;;;51.60;30.03;;;6.80;99.90;;;;;;5025576;28;20317;-69
2022/11/16 05:04:52;;;;;;;51.33;31.93;;;6.80;99.90;;;;;;5027375;28;20407;-69
2022/11/16 05:07:17;;;;;;;49.40;29.47;;;6.80;99.90;;;;;;5026242;28;20312;-68
2022/11/16 05:09:46;;;;;;;50.20;30.50;;;6.80;99.90;;;;;;5027498;28;20199;-69
2022/11/16 05:12:14;;;;;;;53.10;31.23;;;6.80;99.90;;;;;;5026247;28;20692;-70
2022/11/16 05:14:41;;;;;;;58.90;32.50;;;6.80;99.90;;;;;;5027164;28;20199;-69
2022/11/16 05:17:07;;;;;;;56.40;33.07;;;6.90;99.90;;;;;;5027803;28;20206;-68
2022/11/16 05:22:17;;;;;;;54.60;30.30;;;6.90;99.90;;;;;;5028428;28;20309;-70
2022/11/16 05:24:43;;;;;;;47.90;28.53;;;7.00;99.90;;;;;;5033298;28;20969;-68
2022/11/16 05:27:12;;;;;;;55.17;31.30;;;7.00;99.90;;;;;;5026244;28;20208;-56
2022/11/16 05:29:41;;;;;;;54.23;30.93;;;7.10;99.90;;;;;;5024935;28;20235;-74
2022/11/16 05:32:07;;;;;;;52.30;30.30;;;7.20;99.90;;;;;;5025761;28;20265;-72
2022/11/16 05:34:32;;;;;;;63.20;32.50;;;7.30;99.90;;;;;;5027136;28;20638;-71
2022/11/16 05:36:58;;;;;;;56.50;30.37;;;7.30;99.90;;;;;;5026915;28;20210;-67
2022/11/16 05:39:24;;;;;;;58.70;31.83;;;7.40;99.90;;;;;;5024861;28;20209;-69
2022/11/16 05:41:50;;;;;;;55.27;32.67;;;7.30;99.90;;;;;;5027751;28;20194;-68
2022/11/16 05:44:16;;;;;;;59.30;32.10;;;7.20;99.90;;;;;;5027269;28;20209;-76
2022/11/16 05:46:42;;;;;;;57.23;30.90;;;7.20;99.90;;;;;;5026970;28;20234;-70
2022/11/16 05:49:08;;;;;;;60.80;31.30;;;7.20;99.90;;;;;;5027469;28;20215;-69
2022/11/16 05:51:34;;;;;;;60.80;31.27;;;7.20;99.90;;;;;;5023761;28;20249;-68
2022/11/16 05:54:01;;;;;;;57.93;30.60;;;7.20;99.90;;;;;;5026081;28;20323;-61
2022/11/16 05:56:27;;;;;;;59.73;32.50;;;7.20;99.90;;;;;;5027405;28;20229;-63
2022/11/16 05:58:54;;;;;;;60.07;32.30;;;7.20;99.90;;;;;;5033135;28;20207;-65
2022/11/16 06:01:19;;;;;;;55.23;31.93;;;7.20;99.90;;;;;;5023151;28;20191;-56
2022/11/16 06:03:45;;;;;;;75.53;35.80;;;7.40;99.90;;;;;;5025671;28;20209;-60
2022/11/16 06:06:10;;;;;;;62.47;32.73;;;7.40;99.90;;;;;;5024654;28;20260;-57
2022/11/16 06:08:36;;;;;;;63.70;33.43;;;7.50;99.90;;;;;;5028570;28;20261;-57
2022/11/16 06:11:03;;;;;;;59.40;32.03;;;7.50;99.90;;;;;;5035934;28;20207;-57
2022/11/16 06:13:30;;;;;;;69.23;34.23;;;7.60;99.90;;;;;;5036465;28;20203;-57
2022/11/16 06:15:56;;;;;;;54.90;31.53;;;7.60;99.90;;;;;;5035077;28;20203;-57
2022/11/16 06:18:21;;;;;;;67.87;32.97;;;7.60;99.90;;;;;;5036321;28;20213;-57
2022/11/16 06:20:47;;;;;;;60.37;33.67;;;7.70;99.90;;;;;;5036529;28;20364;-57
2022/11/16 06:23:12;;;;;;;69.20;34.47;;;7.80;99.90;;;;;;5034260;28;20214;-57
2022/11/16 06:25:38;;;;;;;65.93;35.30;;;7.80;99.90;;;;;;5024266;28;20198;-58
2022/11/16 06:28:04;;;;;;;58.03;33.20;;;7.80;99.90;;;;;;5026675;28;20218;-57
2022/11/16 06:30:30;;;;;;;66.07;34.07;;;7.80;99.90;;;;;;5024230;28;20206;-57
2022/11/16 06:32:55;;;;;;;62.57;33.37;;;7.80;99.90;;;;;;5025538;28;20191;-57
2022/11/16 06:35:20;;;;;;;73.70;35.70;;;7.90;99.90;;;;;;5027877;28;20602;-57
2022/11/16 06:37:46;;;;;;;68.17;36.43;;;7.80;99.90;;;;;;5027694;28;20219;-57
2022/11/16 06:40:12;;;;;;;74.47;34.77;;;7.80;99.90;;;;;;5027726;28;20206;-57
2022/11/16 06:42:37;;;;;;;55.83;30.97;;;7.80;99.90;;;;;;5027374;28;20692;-57
2022/11/16 06:45:03;;;;;;;64.97;33.63;;;7.80;99.90;;;;;;5025463;28;20213;-55
2022/11/16 06:47:28;;;;;;;66.63;35.80;;;7.80;99.90;;;;;;5026409;28;20219;-56
2022/11/16 06:49:54;;;;;;;75.00;34.47;;;7.80;99.90;;;;;;5024597;28;20678;-56
2022/11/16 06:52:19;;;;;;;64.33;35.13;;;7.80;99.90;;;;;;5026081;28;20231;-55
2022/11/16 06:54:45;;;;;;;65.67;32.03;;;7.80;99.90;;;;;;5025768;28;20370;-55
2022/11/16 06:57:11;;;;;;;72.83;35.13;;;7.80;99.90;;;;;;5026875;28;20275;-57
2022/11/16 06:59:36;;;;;;;68.10;33.13;;;7.80;99.90;;;;;;5024547;28;20245;-66
2022/11/16 07:02:02;;;;;;;57.87;31.73;;;7.80;99.90;;;;;;5025712;28;20210;-68
2022/11/16 07:04:27;;;;;;;71.67;32.93;;;7.80;99.90;;;;;;5025326;28;20199;-70
2022/11/16 07:06:52;;;;;;;71.13;34.43;;;7.80;99.90;;;;;;5025505;28;20203;-69
2022/11/16 07:09:18;;;;;;;70.10;33.87;;;7.80;99.90;;;;;;5025145;28;20265;-66
2022/11/16 07:11:44;;;;;;;64.73;32.37;;;7.70;99.90;;;;;;5023406;28;20743;-69
2022/11/16 07:14:10;;;;;;;68.13;34.50;;;7.70;99.90;;;;;;5024206;28;20559;-69
2022/11/16 07:16:36;;;;;;;67.57;33.30;;;7.70;99.90;;;;;;5026187;28;20212;-64
2022/11/16 07:19:01;;;;;;;78.60;35.43;;;7.60;99.90;;;;;;5027804;28;20290;-66
2022/11/16 07:21:27;;;;;;;66.70;32.67;;;7.60;99.90;;;;;;5028354;28;20211;-65
2022/11/16 07:23:53;;;;;;;68.83;32.80;;;7.50;99.90;;;;;;5029349;28;20198;-66
2022/11/16 07:26:19;;;;;;;64.57;34.00;;;7.60;99.90;;;;;;5029926;28;20221;-73
2022/11/16 07:28:45;;;;;;;64.37;32.67;;;7.50;99.90;;;;;;5028926;28;20217;-62
2022/11/16 07:31:12;;;;;;;77.43;34.13;;;7.50;99.90;;;;;;5029181;28;20207;-62
2022/11/16 07:33:39;;;;;;;67.50;34.70;;;7.50;99.90;;;;;;5030662;28;20217;-63
2022/11/16 07:36:07;;;;;;;65.53;31.87;;;7.50;99.90;;;;;;5029108;28;20283;-62
2022/11/16 07:38:33;;;;;;;64.80;31.50;;;7.50;99.90;;;;;;5025063;28;20631;-68
2022/11/16 07:41:03;;;;;;;66.77;33.27;;;7.60;99.90;;;;;;5029151;28;20558;-72
2022/11/16 07:43:35;;;;;;;68.00;32.77;;;7.60;99.90;;;;;;5029751;28;20261;-69
2022/11/16 07:46:02;;;;;;;67.73;33.23;;;7.60;99.90;;;;;;5028366;28;20216;-68
2022/11/16 07:48:28;;;;;;;68.97;34.23;;;7.60;99.90;;;;;;5029147;28;20245;-70
2022/11/16 07:51:08;;;;;;;62.27;32.13;;;7.60;99.90;;;;;;5030288;28;20202;-69
2022/11/16 07:53:34;;;;;;;72.70;33.23;;;7.60;99.90;;;;;;5029815;28;20206;-71
2022/11/16 07:55:59;;;;;;;69.10;33.97;;;7.60;99.90;;;;;;5026871;28;20199;-73
2022/11/16 07:58:27;;;;;;;64.13;33.50;;;7.60;99.90;;;;;;5031551;28;20220;-63
2022/11/16 08:00:53;;;;;;;68.03;33.27;;;7.60;99.90;;;;;;5030229;28;20195;-62
2022/11/16 08:03:18;;;;;;;68.27;34.70;;;7.60;99.90;;;;;;5028459;28;20579;-62
2022/11/16 08:05:44;;;;;;;62.83;32.93;;;7.60;99.90;;;;;;5028499;28;20207;-69
2022/11/16 08:08:11;;;;;;;64.00;33.67;;;7.60;99.90;;;;;;5027556;28;20681;-68
2022/11/16 08:10:37;;;;;;;65.13;31.37;;;7.70;99.90;;;;;;5028924;28;20203;-66
2022/11/16 08:13:03;;;;;;;66.53;33.63;;;7.70;99.90;;;;;;5029249;28;20661;-71
2022/11/16 08:15:28;;;;;;;63.27;31.53;;;7.70;99.90;;;;;;5029592;28;20404;-62
2022/11/16 08:17:55;;;;;;;74.07;35.50;;;7.70;99.90;;;;;;5030120;28;20202;-62
2022/11/16 08:20:21;;;;;;;67.50;32.67;;;7.70;99.90;;;;;;5027430;28;20289;-62
2022/11/16 08:22:48;;;;;;;67.67;33.53;;;7.70;99.90;;;;;;5030033;28;20629;-63
2022/11/16 08:25:14;;;;;;;63.77;33.40;;;7.80;99.90;;;;;;5025152;28;20633;-62
2022/11/16 08:27:39;;;;;;;60.27;31.43;;;7.70;99.90;;;;;;5027775;28;20678;-61
2022/11/16 08:30:08;;;;;;;68.30;32.53;;;7.70;99.90;;;;;;5025596;28;20208;-72
2022/11/16 08:32:35;;;;;;;66.57;32.03;;;7.80;99.90;;;;;;5030971;28;20229;-74
2022/11/16 08:35:00;;;;;;;66.53;31.97;;;7.80;99.90;;;;;;5027691;28;20766;-67
2022/11/16 08:37:27;;;;;;;64.83;30.70;;;7.80;99.90;;;;;;5027478;28;20194;-68
2022/11/16 08:39:52;;;;;;;56.50;29.67;;;7.80;99.90;;;;;;5028379;28;20202;-68
2022/11/16 08:42:18;;;;;;;57.57;29.80;;;7.80;99.90;;;;;;5026552;28;20731;-67
2022/11/16 08:44:43;;;;;;;56.03;28.57;;;7.80;99.90;;;;;;5027616;28;20566;-67
2022/11/16 08:47:09;;;;;;;64.87;29.63;;;7.80;99.90;;;;;;5027720;28;20207;-67
2022/11/16 08:49:34;;;;;;;56.90;29.00;;;7.80;99.90;;;;;;5027841;28;20282;-66
2022/11/16 08:52:00;;;;;;;58.43;29.67;;;7.80;99.90;;;;;;5027155;28;20192;-67
2022/11/16 08:54:28;;;;;;;52.77;27.63;;;7.70;99.90;;;;;;5027152;28;20204;-68
2022/11/16 08:56:53;;;;;;;52.03;26.70;;;7.70;99.90;;;;;;5025529;28;20231;-67
2022/11/16 08:59:19;;;;;;;50.27;26.60;;;7.60;99.90;;;;;;5028333;28;20562;-67
2022/11/16 09:01:44;;;;;;;52.63;27.43;;;7.70;99.90;;;;;;5027684;28;20290;-67
2022/11/16 09:04:10;;;;;;;48.77;27.37;;;7.70;99.90;;;;;;5027603;28;20206;-67
2022/11/16 09:06:35;;;;;;;50.17;26.00;;;7.70;99.90;;;;;;5027864;28;20943;-67
2022/11/16 09:09:01;;;;;;;44.37;25.00;;;7.70;99.90;;;;;;5028339;28;20227;-66
2022/11/16 09:11:27;;;;;;;44.83;23.67;;;7.70;99.90;;;;;;5025415;28;20568;-67
2022/11/16 09:13:54;;;;;;;53.07;24.47;;;7.70;99.90;;;;;;5026932;28;20761;-67
2022/11/16 09:16:20;;;;;;;55.80;26.10;;;7.70;99.90;;;;;;5028265;28;20206;-69
2022/11/16 09:18:47;;;;;;;55.97;25.40;;;7.70;99.90;;;;;;5026057;28;20534;-61
2022/11/16 09:21:31;;;;;;;47.30;24.10;;;7.70;99.90;;;;;;5029250;28;20206;-60
2022/11/16 09:23:57;;;;;;;47.43;24.93;;;7.70;99.90;;;;;;5023608;28;20195;-64
2022/11/16 09:26:24;;;;;;;40.60;23.43;;;7.70;99.90;;;;;;5037702;28;20195;-66
2022/11/16 09:28:58;;;;;;;45.03;23.00;;;7.70;99.90;;;;;;5025156;28;20234;-68
2022/11/16 09:31:26;;;;;;;38.23;21.77;;;7.70;99.90;;;;;;5026241;28;20683;-67
2022/11/16 09:33:52;;;;;;;41.80;22.50;;;7.70;99.90;;;;;;5024729;28;20187;-67
2022/11/16 09:36:19;;;;;;;34.27;20.47;;;7.80;99.90;;;;;;5028000;28;20683;-68
2022/11/16 09:38:45;;;;;;;36.07;18.87;;;7.80;99.90;;;;;;5022450;28;20416;-67
2022/11/16 09:41:29;;;;;;;36.33;20.33;;;7.80;99.90;;;;;;5027737;28;20205;-67
2022/11/16 09:44:03;;;;;;;34.67;20.27;;;7.80;99.90;;;;;;5025532;28;20209;-67
2022/11/16 09:46:33;;;;;;;29.03;16.57;;;7.80;99.90;;;;;;5026937;28;20577;-68
2022/11/16 09:49:06;;;;;;;27.77;16.67;;;7.80;99.90;;;;;;5024195;28;20222;-67
2022/11/16 09:51:34;;;;;;;23.73;14.43;;;7.80;99.90;;;;;;5025747;28;20241;-67
2022/11/16 09:54:07;;;;;;;28.30;13.53;;;7.80;99.90;;;;;;5038156;28;20774;-66
2022/11/16 09:56:38;;;;;;;27.87;16.63;;;7.70;99.90;;;;;;5025529;28;20225;-66
2022/11/16 09:59:07;;;;;;;24.63;14.83;;;7.70;99.90;;;;;;5025072;28;20210;-66
2022/11/16 10:01:54;;;;;;;23.07;14.20;;;7.70;99.90;;;;;;5025847;28;20194;-66
2022/11/16 10:04:42;;;;;;;23.07;13.53;;;7.70;99.90;;;;;;5034213;28;20259;-66
2022/11/16 10:07:14;;;;;;;22.23;14.23;;;7.70;99.90;;;;;;5028060;28;20228;-67
2022/11/16 10:09:40;;;;;;;19.97;12.87;;;7.70;99.90;;;;;;5023387;28;20195;-67
2022/11/16 10:12:27;;;;;;;21.37;14.00;;;7.70;99.90;;;;;;5025339;28;20199;-61
2022/11/16 10:15:12;;;;;;;23.80;14.90;;;7.70;99.90;;;;;;5028577;28;20201;-61
2022/11/16 10:17:57;;;;;;;24.90;14.47;;;7.70;99.90;;;;;;5024379;28;20201;-62
2022/11/16 10:20:50;;;;;;;26.20;15.20;;;7.70;99.90;;;;;;5023969;28;20763;-62
2022/11/16 10:23:38;;;;;;;23.63;15.73;;;7.70;99.90;;;;;;5024505;28;20282;-67
2022/11/16 10:26:18;;;;;;;23.63;16.07;;;7.70;99.90;;;;;;5035187;28;20225;-67
2022/11/16 10:29:10;;;;;;;24.07;15.70;;;7.70;99.90;;;;;;5025353;28;20218;-67
2022/11/16 10:31:59;;;;;;;24.97;15.30;;;7.70;99.90;;;;;;5024587;28;20288;-67
2022/11/16 10:34:31;;;;;;;25.47;16.33;;;7.70;99.90;;;;;;5025504;28;20203;-67
2022/11/16 10:37:05;;;;;;;25.57;15.23;;;7.70;99.90;;;;;;5028503;28;20226;-66
2022/11/16 10:39:33;;;;;;;26.00;15.67;;;7.70;99.90;;;;;;5025500;28;20192;-66
2022/11/16 10:42:03;;;;;;;24.57;16.40;;;7.80;99.90;;;;;;5025635;28;20207;-66
2022/11/16 10:44:34;;;;;;;26.73;16.57;;;7.80;99.90;;;;;;5023605;28;20231;-67
2022/11/16 10:47:11;;;;;;;30.30;17.23;;;7.80;99.90;;;;;;5025404;28;21003;-67
2022/11/16 10:49:50;;;;;;;25.00;17.63;;;7.80;99.90;;;;;;5025429;28;20200;-68
2022/11/16 10:52:15;;;;;;;25.53;16.00;;;7.80;99.90;;;;;;5025060;28;20202;-67
2022/11/16 10:54:41;;;;;;;28.40;16.83;;;7.80;99.90;;;;;;5027001;28;20207;-68
2022/11/16 10:57:13;;;;;;;26.40;17.57;;;7.80;99.90;;;;;;5030215;28;20219;-68
2022/11/16 10:59:57;;;;;;;23.20;16.13;;;7.80;99.90;;;;;;5027517;28;20205;-68
2022/11/16 11:02:46;;;;;;;27.33;18.23;;;7.80;99.90;;;;;;5033267;28;20285;-67
2022/11/16 11:05:19;;;;;;;28.00;17.23;;;7.80;99.90;;;;;;5029351;28;20295;-66
2022/11/16 11:07:49;;;;;;;26.17;17.33;;;7.80;99.90;;;;;;5028942;28;20218;-67
2022/11/16 11:10:29;;;;;;;28.30;18.37;;;7.80;99.90;;;;;;5024159;28;20217;-67
2022/11/16 11:13:10;;;;;;;24.93;17.77;;;7.80;99.90;;;;;;5032979;28;20265;-67
2022/11/16 11:15:37;;;;;;;27.77;17.47;;;7.80;99.90;;;;;;5028853;28;20191;-67
2022/11/16 11:18:14;;;;;;;26.77;18.53;;;7.80;99.90;;;;;;5028402;28;20207;-67
2022/11/16 11:20:43;;;;;;;25.67;17.17;;;7.80;99.90;;;;;;5027527;28;20199;-67
2022/11/16 11:23:21;;;;;;;25.13;18.30;;;7.80;99.90;;;;;;5028174;28;20206;-67
2022/11/16 11:25:55;;;;;;;30.23;18.53;;;7.80;99.90;;;;;;5028823;28;20214;-68
2022/11/16 11:28:30;;;;;;;26.03;17.03;;;7.70;99.90;;;;;;5025272;28;20226;-68
2022/11/16 11:31:25;;;;;;;23.13;17.07;;;7.70;99.90;;;;;;5030152;28;20979;-68
2022/11/16 11:33:53;;;;;;;26.70;18.30;;;7.80;99.90;;;;;;5024929;28;20207;-67
2022/11/16 11:36:25;;;;;;;30.30;19.10;;;7.80;99.90;;;;;;5027395;28;20206;-67
2022/11/16 11:39:17;;;;;;;29.37;19.47;;;7.80;99.90;;;;;;5029155;28;20222;-69
2022/11/16 11:41:44;;;;;;;28.20;18.03;;;7.80;99.90;;;;;;5028585;28;20198;-66
2022/11/16 11:44:12;;;;;;;32.30;21.17;;;7.70;99.90;;;;;;5026756;28;20211;-67
2022/11/16 11:46:43;;;;;;;34.50;19.97;;;7.70;99.90;;;;;;5032480;28;20207;-67
2022/11/16 11:49:30;;;;;;;31.23;21.20;;;7.70;99.90;;;;;;5022490;28;20226;-68
2022/11/16 11:52:00;;;;;;;27.20;17.73;;;7.70;99.90;;;;;;5028872;28;20204;-68
2022/11/16 11:54:30;;;;;;;31.53;21.20;;;7.70;99.90;;;;;;5024471;28;20210;-68
2022/11/16 11:56:56;;;;;;;33.60;20.33;;;7.70;99.90;;;;;;5025839;28;20888;-68
2022/11/16 11:59:25;;;;;;;30.50;19.10;;;7.70;99.90;;;;;;5031693;28;20543;-68
2022/11/16 12:02:25;;;;;;;33.57;21.33;;;7.80;99.90;;;;;;5028946;28;20751;-68
2022/11/16 12:05:18;;;;;;;38.50;21.30;;;7.70;99.90;;;;;;5027780;28;20293;-69
2022/11/16 12:07:49;;;;;;;34.73;22.10;;;7.70;99.90;;;;;;5026269;28;20210;-68
2022/11/16 12:10:26;;;;;;;32.23;21.70;;;7.70;99.90;;;;;;5025255;28;20394;-68
2022/11/16 12:13:04;;;;;;;35.70;22.63;;;7.60;99.90;;;;;;5028166;28;20209;-68
2022/11/16 12:15:56;;;;;;;32.97;21.83;;;7.60;99.90;;;;;;5027300;28;20356;-67
2022/11/16 12:18:46;;;;;;;37.87;20.90;;;7.50;99.90;;;;;;5027971;28;20251;-67
2022/11/16 12:21:16;;;;;;;37.77;23.90;;;7.60;99.90;;;;;;5035041;28;20222;-68
2022/11/16 12:24:12;;;;;;;35.37;22.63;;;7.50;99.90;;;;;;5034791;28;20214;-67
2022/11/16 12:26:53;;;;;;;31.87;20.23;;;7.60;99.90;;;;;;5039989;28;20226;-68
2022/11/16 12:29:30;;;;;;;35.33;22.93;;;7.60;99.90;;;;;;5028505;28;20586;-68
2022/11/16 12:32:17;;;;;;;36.30;23.23;;;7.60;99.90;;;;;;5036532;28;20240;-68
2022/11/16 12:35:11;;;;;;;36.33;22.37;;;7.60;99.90;;;;;;5039897;28;20618;-69
2022/11/16 12:37:57;;;;;;;34.07;22.17;;;7.70;99.90;;;;;;5037866;28;20204;-62
2022/11/16 12:40:51;;;;;;;31.53;20.17;;;7.60;99.90;;;;;;5033945;28;20213;-62
2022/11/16 12:43:31;;;;;;;30.10;21.10;;;7.60;99.90;;;;;;5037765;28;20768;-60
2022/11/16 12:46:15;;;;;;;30.40;21.00;;;7.70;99.90;;;;;;5031613;28;20207;-57
2022/11/16 12:49:20;;;;;;;36.23;21.97;;;7.70;99.90;;;;;;5026825;28;20260;-57
2022/11/16 12:52:05;;;;;;;33.63;20.60;;;7.80;99.90;;;;;;5034475;28;20668;-57
2022/11/16 12:55:06;;;;;;;30.83;20.67;;;7.90;99.90;;;;;;5031367;28;20732;-57
2022/11/16 12:58:05;;;;;;;28.73;20.03;;;8.10;99.90;;;;;;4985479;28;20224;-57
2022/11/16 13:00:48;;;;;;;31.27;19.60;;;8.10;99.90;;;;;;5025744;28;20282;-58
2022/11/16 13:03:24;;;;;;;32.83;22.17;;;8.20;99.90;;;;;;5032848;28;20854;-58
2022/11/16 13:06:15;;;;;;;30.87;20.93;;;8.20;99.90;;;;;;5024874;28;20611;-58
2022/11/16 13:08:52;;;;;;;33.13;20.67;;;8.30;99.90;;;;;;5026003;28;20215;-58
2022/11/16 13:11:32;;;;;;;28.73;21.00;;;8.20;99.90;;;;;;5031250;28;20220;-58
2022/11/16 13:14:06;;;;;;;29.70;19.90;;;8.20;99.90;;;;;;5030420;28;20243;-57
2022/11/16 13:16:33;;;;;;;29.93;19.50;;;8.20;99.90;;;;;;5021468;28;20199;-57
2022/11/16 13:19:02;;;;;;;27.47;20.67;;;8.30;99.90;;;;;;5027412;28;20213;-57
2022/11/16 13:21:36;;;;;;;31.10;19.33;;;8.30;99.90;;;;;;5026812;28;20274;-57
2022/11/16 13:24:21;;;;;;;24.67;17.97;;;8.40;99.90;;;;;;5026014;28;20218;-55
2022/11/16 13:27:10;;;;;;;26.30;19.23;;;8.50;99.90;;;;;;5023595;28;20304;-61
2022/11/16 13:29:42;;;;;;;25.80;17.50;;;8.50;99.90;;;;;;5022896;28;20214;-63
2022/11/16 13:32:17;;;;;;;23.93;18.03;;;8.50;99.90;;;;;;5029766;28;20222;-64
2022/11/16 13:34:43;;;;;;;22.50;16.33;;;8.40;99.90;;;;;;5022639;28;20338;-61